FLW weather

Flores Airport
Santa Cruz das Flores, Autonomous Region of Azores, Portugal

Public forecast

Using degrees Celsius for public forecast. Weather courtesy of forecast.io.

Current aviation weather report (METAR) for Flores Airport

Retrieved 2020/08/04 14:30 UTC (9 minutes ago):

LPFL 041430Z 17012KT 140V200 9999 -SHRA FEW010 BKN014TCU 25/22 Q1015

Closest aviation forecast (TAF) to Flores Airport

Forecast is more than 12 hours old.

Closest forecast is Horta Airport, 125.9 nm (233.2 km) ESE. Retrieved 2018/09/06 09:00 UTC (2 years ago):

TAF LPHR 060800Z 0609/0618 12010KT 9999 SCT018 SCT040 PROB30 TEMPO 0609/0618 5000 SHRA BKN015 FEW018CB BECMG 0610/0612 18010KT